Plainfield, Indiana
Current Conditions -  °F | °C
As of 10:54 PM on Monday 22 Dec 2014 (Local Time) from KIND Reporting Station
Light Rain Light Rain  
Wind Chill: 39°   Ceiling: 2200
Heat Index: 45°   Visibility: 10mi
Dew Point: 40°   Wind: 14mph
Humidity: 82%   Direction: 140°SE
Pressure: 29.64"   Gusts: NA
Location:  39.7°N, 86.4°W
Report Text: KIND 230354Z 14012KT 10SM -RA BKN022 OVC038 07/04 A2964 RMK AO2 RAB31 SLP042 P0000 T00720044
Loading
Personal Weather Stations






























Interactive Weather Map New forecast layout! Learn more

10-Day Weather Forecast

Advertisements
Track Severe Weather on mobile